»·PEaware :: N1021M S36-KORS

N1021M :: S36-KORS

FLIGHT INFORMATION

Flight Status: Arrived
Operator: Privately registered:
United States
More flights under this callsign
Pilot: Matthew M. (27032)
Aircraft: CESSNA 172 SKYHAWK
(C172)
More flights by this aircraft type
Origin: S36 Norman Grier Field
United States
Destination: KORS Orcas Island
United States
More flights between these airports :: More routes between these airports
Route: +PAE CANDL
File this flight plan on PilotEdge
Remarks:
Altitude:
(Current/Filed)
6,000ft
Speed:
(Current/Filed)
100kts
Departed: 28-Aug-20 08:03 AM
Arrived: 28-Aug-20 08:57 AM
Distance/Time
Traveled:
88nm/0:54
Distance/Time
To Go:
Arrived

Flight Plot

Page will automatically refresh every two minutes.

Flight plan parsing failed; only flown route is shown


Map Options




Map Legend


Flown Route
Filed Route
Departure Airport
Arrival Airport
Navaid (VOR, NDB)
Fix

Horizontal Profiles

Position Reports

Time Latitude Longitude Heading Altitude Ground
Speed
28-Aug-20 08:01 47.846361 -122.238998 342 6034ft 113kts
28-Aug-20 08:02 47.876820 -122.253461 342 6038ft 113kts
28-Aug-20 08:03 47.907300 -122.267928 342 6041ft 113kts
28-Aug-20 08:04 47.937823 -122.282351 343 6045ft 113kts
28-Aug-20 08:05 47.968169 -122.295922 343 6048ft 113kts
28-Aug-20 08:06 47.998581 -122.309332 343 6051ft 113kts
28-Aug-20 08:07 48.029016 -122.322667 343 6052ft 113kts
28-Aug-20 08:08 48.059474 -122.335977 343 6052ft 113kts
28-Aug-20 08:09 48.089936 -122.349260 343 6052ft 113kts
28-Aug-20 08:10 48.120079 -122.361881 344 6053ft 113kts
28-Aug-20 08:11 48.150700 -122.375178 343 6053ft 113kts
28-Aug-20 08:12 48.181285 -122.388589 343 6052ft 115kts
28-Aug-20 08:13 48.212396 -122.402266 343 6053ft 116kts
28-Aug-20 08:15 48.243569 -122.415992 343 6053ft 116kts
28-Aug-20 08:16 48.270587 -122.440046 310 6053ft 116kts
28-Aug-20 08:17 48.291330 -122.477681 311 6053ft 116kts
28-Aug-20 08:18 48.311882 -122.515601 309 6053ft 116kts
28-Aug-20 08:19 48.332282 -122.553398 311 6053ft 116kts
28-Aug-20 08:20 48.353237 -122.591107 310 6053ft 116kts
28-Aug-20 08:21 48.374189 -122.628819 311 6053ft 116kts
28-Aug-20 08:22 48.395231 -122.666643 310 5972ft 121kts
28-Aug-20 08:23 48.417489 -122.706598 310 4965ft 122kts
28-Aug-20 08:24 48.439510 -122.746291 310 3956ft 122kts
28-Aug-20 08:25 48.460849 -122.784857 310 3275ft 114kts
28-Aug-20 08:26 48.481313 -122.821616 310 3286ft 114kts
28-Aug-20 08:27 48.501767 -122.858938 310 3284ft 114kts
28-Aug-20 08:28 48.522320 -122.896236 310 3278ft 114kts
28-Aug-20 08:29 48.551294 -122.911475 350 2719ft 113kts
28-Aug-20 08:30 48.580911 -122.911574 4 2236ft 95kts
28-Aug-20 08:31 48.607815 -122.912064 6 2353ft 99kts
28-Aug-20 08:31 48.631138 -122.910500 359 2286ft 97kts
28-Aug-20 08:33 48.664763 -122.909810 3 1222ft 107kts
28-Aug-20 08:33 48.687532 -122.909287 357 1186ft 96kts
28-Aug-20 08:34 48.713619 -122.908365 17 1916ft 92kts
28-Aug-20 08:36 48.736871 -122.879350 55 2566ft 102kts
28-Aug-20 08:36 48.753566 -122.857635 28 2052ft 97kts
28-Aug-20 08:37 48.776457 -122.828822 47 2035ft 111kts
28-Aug-20 08:38 48.799695 -122.796839 40 2035ft 113kts
28-Aug-20 08:39 48.823742 -122.765151 43 2037ft 113kts
28-Aug-20 08:40 48.851717 -122.752914 0 2550ft 97kts
28-Aug-20 08:41 48.878019 -122.749366 3 3278ft 103kts
28-Aug-20 08:42 48.909280 -122.744181 9 3192ft 109kts
28-Aug-20 08:43 48.940323 -122.732866 14 2448ft 115kts
28-Aug-20 08:44 48.968616 -122.717159 55 2052ft 101kts
28-Aug-20 08:45 48.953696 -122.698119 212 2056ft 100kts
28-Aug-20 08:46 48.931251 -122.726136 212 2057ft 105kts
28-Aug-20 08:47 48.905736 -122.749279 209 2059ft 105kts
28-Aug-20 08:48 48.879945 -122.771909 215 2056ft 105kts
28-Aug-20 08:49 48.854958 -122.795611 211 2056ft 105kts
28-Aug-20 08:50 48.829784 -122.818716 211 2057ft 104kts
28-Aug-20 08:51 48.804151 -122.840021 206 2057ft 104kts
28-Aug-20 08:52 48.779159 -122.863727 209 1817ft 104kts
28-Aug-20 08:53 48.754899 -122.884523 207 1155ft 86kts
28-Aug-20 08:54 48.735093 -122.901674 211 546ft 71kts
28-Aug-20 08:55 48.718503 -122.910564 179 207ft 61kts
28-Aug-20 08:56 48.707367 -122.910460 106 28ft 5kts
28-Aug-20 08:57 48.706488 -122.909450 122 33ft 0kts
28-Aug-20 08:58 48.706488 -122.909450 122 33ft 0kts
28-Aug-20 08:59 48.706488 -122.909450 122 33ft 0kts
28-Aug-20 09:00 48.706488 -122.909450 122 33ft 0kts
28-Aug-20 09:01 48.706488 -122.909450 122 33ft 0kts
28-Aug-20 09:02 48.706488 -122.909450 122 33ft 0kts
28-Aug-20 09:03 48.706488 -122.909450 122 33ft 0kts
28-Aug-20 09:04 48.706488 -122.909450 122 33ft 0kts
28-Aug-20 09:05 48.706488 -122.909450 122 33ft 0kts
28-Aug-20 09:06 48.706488 -122.909450 122 33ft 0kts
28-Aug-20 09:07 48.706488 -122.909450 122 33ft 0kts
28-Aug-20 09:08 48.706488 -122.909450 122 33ft 0kts

Navigation Log

Ident Type
Flight plan parsing failed, navigation log unavailable